createdAt,value
2019-01-26T00:01:22.645Z,23.20
2019-01-26T00:03:52.611Z,20.20
2019-01-26T00:06:22.744Z,21.05
2019-01-26T00:08:52.759Z,31.75
2019-01-26T00:11:24.260Z,20.90
2019-01-26T00:13:54.380Z,18.17
2019-01-26T00:16:24.443Z,19.05
2019-01-26T00:18:54.436Z,16.95
2019-01-26T00:21:24.630Z,18.12
2019-01-26T00:23:55.732Z,14.20
2019-01-26T00:26:26.190Z,16.05
2019-01-26T00:28:56.415Z,15.32
2019-01-26T00:31:27.049Z,14.63
2019-01-26T00:33:56.998Z,19.87
2019-01-26T00:36:26.957Z,14.13
2019-01-26T00:38:56.799Z,13.20
2019-01-26T00:41:27.403Z,14.98
2019-01-26T00:43:57.374Z,10.88
2019-01-26T00:46:28.435Z,13.78
2019-01-26T00:48:59.626Z,13.72
2019-01-26T00:51:29.739Z,12.88
2019-01-26T00:53:59.853Z,12.07
2019-01-26T00:56:30.305Z,11.05
2019-01-26T00:59:20.780Z,11.28
2019-01-26T01:01:50.846Z,13.28
2019-01-26T01:04:21.098Z,11.00
2019-01-26T01:06:51.174Z,11.03
2019-01-26T01:09:21.240Z,15.78
2019-01-26T01:11:51.336Z,11.05
2019-01-26T01:14:21.346Z,8.55
2019-01-26T01:16:51.338Z,9.50
2019-01-26T01:19:22.382Z,8.98
2019-01-26T01:21:52.306Z,6.97
2019-01-26T01:24:22.371Z,5.33
2019-01-26T01:26:52.520Z,5.12
2019-01-26T01:29:46.883Z,5.00
2019-01-26T01:32:20.890Z,3.47
2019-01-26T01:34:50.931Z,5.00
2019-01-26T01:37:21.202Z,5.75
2019-01-26T01:39:51.253Z,4.65
2019-01-26T01:42:21.216Z,4.58
2019-01-26T01:44:52.173Z,4.85
2019-01-26T01:47:23.592Z,6.08
2019-01-26T01:49:53.615Z,4.35
2019-01-26T01:52:24.570Z,6.47
2019-01-26T01:54:54.546Z,4.58
2019-01-26T01:57:24.608Z,7.67
2019-01-26T01:59:55.701Z,4.97
2019-01-26T02:02:25.794Z,5.28
2019-01-26T02:04:55.782Z,7.28
2019-01-26T02:07:26.082Z,7.62
2019-01-26T02:09:56.125Z,8.68
2019-01-26T02:12:26.172Z,7.42
2019-01-26T02:14:56.107Z,7.15
2019-01-26T02:17:26.047Z,8.75
2019-01-26T02:19:56.119Z,7.45
2019-01-26T02:22:26.173Z,6.97
2019-01-26T02:24:56.799Z,8.00
2019-01-26T02:27:46.739Z,10.58
2019-01-26T02:30:19.236Z,11.68
2019-01-26T02:32:49.135Z,13.30
2019-01-26T02:35:19.110Z,9.10
2019-01-26T02:37:49.140Z,9.95
2019-01-26T02:40:19.093Z,12.20
2019-01-26T02:42:49.116Z,13.62
2019-01-26T02:45:23.240Z,12.00
2019-01-26T02:47:57.033Z,12.70
2019-01-26T02:50:30.748Z,13.93
2019-01-26T02:53:00.965Z,13.50
2019-01-26T02:55:32.372Z,14.07
2019-01-26T02:58:02.621Z,13.68
2019-01-26T03:00:32.563Z,16.75
2019-01-26T03:03:02.551Z,16.97
2019-01-26T03:05:34.185Z,14.83
2019-01-26T03:08:04.221Z,16.10
2019-01-26T03:10:34.242Z,16.87
2019-01-26T03:13:04.561Z,15.28
2019-01-26T03:15:34.655Z,16.15
2019-01-26T03:18:04.607Z,16.48
2019-01-26T03:20:35.617Z,15.83
2019-01-26T03:23:05.657Z,17.62
2019-01-26T03:25:35.589Z,17.57
2019-01-26T03:28:05.791Z,17.87
2019-01-26T03:30:35.687Z,17.02
2019-01-26T03:33:06.366Z,18.62
2019-01-26T03:35:40.238Z,16.55
2019-01-26T03:38:10.130Z,16.62
2019-01-26T03:40:41.180Z,14.70
2019-01-26T03:43:13.883Z,18.82
2019-01-26T03:45:43.998Z,14.00
2019-01-26T03:48:13.832Z,14.25
2019-01-26T03:50:45.287Z,15.75
2019-01-26T03:53:15.268Z,15.03
2019-01-26T03:55:50.115Z,13.38
2019-01-26T03:58:20.072Z,14.35
2019-01-26T04:00:49.987Z,12.15
2019-01-26T04:03:19.895Z,12.10
2019-01-26T04:05:50.244Z,13.38
2019-01-26T04:08:20.214Z,14.50
2019-01-26T04:10:51.630Z,11.53
2019-01-26T04:13:21.581Z,13.50
2019-01-26T04:15:51.417Z,11.08
2019-01-26T04:18:21.383Z,11.60
2019-01-26T04:20:51.525Z,10.38
2019-01-26T04:23:21.472Z,11.15
2019-01-26T04:25:51.649Z,11.97
2019-01-26T04:28:21.801Z,12.40
2019-01-26T04:30:51.719Z,10.28
2019-01-26T04:33:21.719Z,11.90
2019-01-26T04:35:52.043Z,10.88
2019-01-26T04:38:21.956Z,9.75
2019-01-26T04:40:52.322Z,11.45
2019-01-26T04:43:26.270Z,10.60
2019-01-26T04:45:57.536Z,9.75
2019-01-26T04:48:27.461Z,10.40
2019-01-26T04:50:57.436Z,11.53
2019-01-26T04:53:27.381Z,8.23
2019-01-26T04:55:57.227Z,8.68
2019-01-26T04:58:27.131Z,8.35
2019-01-26T05:00:57.193Z,10.43
2019-01-26T05:03:27.104Z,9.18
2019-01-26T05:05:56.951Z,8.23
2019-01-26T05:08:26.839Z,8.63
2019-01-26T05:10:56.836Z,8.88
2019-01-26T05:13:35.219Z,10.15
2019-01-26T05:16:05.164Z,7.92
2019-01-26T05:18:50.561Z,10.25
2019-01-26T05:21:20.542Z,9.08
2019-01-26T05:23:51.323Z,7.08
2019-01-26T05:26:21.958Z,7.33
2019-01-26T05:28:52.314Z,6.83
2019-01-26T05:31:22.302Z,6.90
2019-01-26T05:33:54.546Z,8.93
2019-01-26T05:36:26.416Z,9.03
2019-01-26T05:38:56.373Z,9.55
2019-01-26T05:41:26.288Z,6.60
2019-01-26T05:43:59.147Z,6.08
2019-01-26T05:46:29.160Z,8.53
2019-01-26T05:48:59.106Z,9.38
2019-01-26T05:51:28.928Z,7.42
2019-01-26T05:53:59.280Z,4.08
2019-01-26T05:56:29.714Z,5.30
2019-01-26T05:58:59.823Z,5.78
2019-01-26T06:01:31.096Z,6.67
2019-01-26T06:04:01.108Z,5.22
2019-01-26T06:06:32.149Z,5.22
2019-01-26T06:09:02.265Z,4.08
2019-01-26T06:11:32.635Z,3.52
2019-01-26T06:14:04.170Z,3.80
2019-01-26T06:16:33.986Z,4.33
2019-01-26T06:19:03.934Z,2.47
2019-01-26T06:21:50.111Z,3.37
2019-01-26T06:24:15.422Z,2.27
2019-01-26T06:26:47.908Z,1.75
2019-01-26T06:29:17.909Z,2.87
2019-01-26T06:31:47.885Z,2.50
2019-01-26T06:34:17.895Z,2.00
2019-01-26T06:36:48.148Z,1.72
2019-01-26T06:39:18.563Z,3.33
2019-01-26T06:41:53.635Z,5.75
2019-01-26T06:44:24.392Z,7.35
2019-01-26T06:46:54.303Z,3.37
2019-01-26T06:49:28.103Z,2.83
2019-01-26T06:52:26.108Z,2.42
2019-01-26T06:54:56.083Z,3.65
2019-01-26T06:57:27.620Z,2.72
2019-01-26T06:59:59.589Z,5.17
2019-01-26T07:02:57.612Z,3.55
2019-01-26T07:05:55.010Z,5.15
2019-01-26T07:08:26.123Z,4.10
2019-01-26T07:10:56.089Z,5.92
2019-01-26T07:16:55.766Z,5.92
2019-01-26T07:19:57.208Z,6.33
2019-01-26T07:22:27.153Z,4.03
2019-01-26T07:24:57.086Z,4.72
2019-01-26T07:28:03.427Z,4.03
2019-01-26T07:30:41.479Z,6.92
2019-01-26T07:33:21.121Z,3.00
2019-01-26T07:35:51.329Z,3.05
2019-01-26T07:38:28.901Z,3.98
2019-01-26T07:41:08.399Z,4.37
2019-01-26T07:43:40.102Z,4.35
2019-01-26T07:47:11.909Z,4.15
2019-01-26T07:49:42.154Z,7.30
2019-01-26T07:52:13.939Z,4.00
2019-01-26T07:54:49.222Z,3.87
2019-01-26T07:57:19.583Z,3.98
2019-01-26T08:03:14.911Z,4.05
2019-01-26T08:05:45.159Z,3.42
2019-01-26T08:08:17.511Z,5.80
2019-01-26T08:10:49.764Z,4.78
2019-01-26T08:13:24.345Z,4.80
2019-01-26T08:15:54.338Z,4.60
2019-01-26T08:18:24.412Z,6.78
2019-01-26T08:20:55.130Z,5.62
2019-01-26T08:23:25.079Z,7.87
2019-01-26T08:25:58.183Z,3.27
2019-01-26T08:28:35.550Z,5.45
2019-01-26T08:31:07.666Z,7.45
2019-01-26T08:33:37.681Z,6.65
2019-01-26T08:36:07.663Z,7.80
2019-01-26T08:38:48.569Z,5.00
2019-01-26T08:41:24.921Z,4.97
2019-01-26T08:43:56.429Z,5.80
2019-01-26T08:46:27.862Z,6.12
2019-01-26T08:48:57.899Z,5.37
2019-01-26T08:51:28.061Z,6.22
2019-01-26T08:54:21.521Z,6.08
2019-01-26T08:56:51.491Z,6.12
2019-01-26T08:59:21.506Z,8.20
2019-01-26T09:01:55.079Z,6.15
2019-01-26T09:04:29.331Z,6.92
2019-01-26T09:07:02.745Z,7.08
2019-01-26T09:09:33.086Z,9.45
2019-01-26T09:12:04.531Z,9.28
2019-01-26T09:14:35.459Z,8.78
2019-01-26T09:17:06.494Z,8.08
2019-01-26T09:19:38.243Z,7.08
2019-01-26T09:22:08.414Z,7.47
2019-01-26T09:24:42.287Z,7.53
2019-01-26T09:27:13.315Z,7.72
2019-01-26T09:29:45.506Z,8.70
2019-01-26T09:32:17.009Z,9.00
2019-01-26T09:34:47.646Z,9.00
2019-01-26T09:37:17.889Z,7.47
2019-01-26T09:39:47.926Z,8.78
2019-01-26T09:42:17.979Z,8.43
2019-01-26T09:44:47.980Z,8.00
2019-01-26T09:47:18.008Z,5.47
2019-01-26T09:49:48.023Z,6.10
2019-01-26T09:52:21.794Z,6.15
2019-01-26T09:54:51.882Z,7.47
2019-01-26T09:57:23.706Z,6.87
2019-01-26T09:59:53.744Z,7.15
2019-01-26T10:02:23.840Z,6.40
2019-01-26T10:04:53.877Z,7.58
2019-01-26T10:07:26.462Z,8.93
2019-01-26T10:09:56.755Z,8.85
2019-01-26T10:12:26.698Z,7.67
2019-01-26T10:14:56.641Z,7.00
2019-01-26T10:17:30.644Z,6.90
2019-01-26T10:20:00.657Z,6.22
2019-01-26T10:22:31.746Z,6.87
2019-01-26T10:25:01.705Z,4.83
2019-01-26T10:27:34.027Z,8.40
2019-01-26T10:30:05.317Z,6.62
2019-01-26T10:32:35.334Z,5.12
2019-01-26T10:35:05.564Z,5.17
2019-01-26T10:37:35.588Z,4.70
2019-01-26T10:40:08.142Z,8.23
2019-01-26T10:42:38.344Z,4.70
2019-01-26T10:45:14.237Z,6.30
2019-01-26T10:47:45.648Z,5.40
2019-01-26T10:50:15.622Z,5.47
2019-01-26T10:52:45.701Z,5.12
2019-01-26T10:55:17.584Z,7.20
2019-01-26T10:57:47.555Z,5.78
2019-01-26T11:00:17.674Z,6.80
2019-01-26T11:02:47.587Z,4.97
2019-01-26T11:05:17.524Z,7.60
2019-01-26T11:07:49.774Z,5.85
2019-01-26T11:10:21.811Z,6.37
2019-01-26T11:12:57.766Z,5.42
2019-01-26T11:15:27.679Z,5.97
2019-01-26T11:17:57.541Z,7.87
2019-01-26T11:20:28.988Z,6.70
2019-01-26T11:22:59.423Z,5.70
2019-01-26T11:25:30.564Z,5.08
2019-01-26T11:28:04.221Z,8.05
2019-01-26T11:30:35.123Z,5.78
2019-01-26T11:33:05.135Z,6.33
2019-01-26T11:35:34.928Z,6.92
2019-01-26T11:38:04.767Z,6.03
2019-01-26T11:40:34.674Z,5.92
2019-01-26T11:43:07.810Z,5.90
2019-01-26T11:46:03.141Z,5.28
2019-01-26T11:48:38.274Z,6.33
2019-01-26T11:51:28.185Z,6.87
2019-01-26T11:53:58.661Z,5.17
2019-01-26T11:56:38.797Z,5.97
2019-01-26T11:59:11.484Z,7.53
2019-01-26T12:01:57.599Z,6.17
2019-01-26T12:05:07.715Z,6.03
2019-01-26T12:07:39.416Z,5.70
2019-01-26T12:10:14.833Z,7.25
2019-01-26T12:12:45.397Z,5.90
2019-01-26T12:15:15.965Z,7.58
2019-01-26T12:17:45.931Z,6.28
2019-01-26T12:20:18.128Z,5.92
2019-01-26T12:22:49.726Z,4.70
2019-01-26T12:25:19.917Z,5.12
2019-01-26T12:27:51.024Z,6.22
2019-01-26T12:30:22.476Z,7.75
2019-01-26T12:32:55.543Z,5.65
2019-01-26T12:35:25.533Z,5.75
2019-01-26T12:37:58.642Z,6.75
2019-01-26T12:40:28.572Z,5.80
2019-01-26T12:42:59.303Z,6.55
2019-01-26T12:45:34.096Z,4.47
2019-01-26T12:48:04.291Z,4.37
2019-01-26T12:50:37.005Z,4.53
2019-01-26T12:53:08.016Z,5.40
2019-01-26T12:55:40.447Z,6.95
2019-01-26T12:58:11.931Z,5.12
2019-01-26T13:00:41.791Z,7.67
2019-01-26T13:03:11.763Z,5.37
2019-01-26T13:05:42.473Z,3.75
2019-01-26T13:08:20.101Z,5.15
2019-01-26T13:10:52.860Z,4.85
2019-01-26T13:13:23.143Z,4.50
2019-01-26T13:15:53.152Z,3.83
2019-01-26T13:18:23.184Z,5.60
2019-01-26T13:20:53.270Z,5.05
2019-01-26T13:23:23.558Z,4.80
2019-01-26T13:25:53.732Z,3.65
2019-01-26T13:28:23.777Z,4.35
2019-01-26T13:30:53.839Z,3.45
2019-01-26T13:33:24.294Z,2.80
2019-01-26T13:35:54.333Z,5.90
2019-01-26T13:38:25.317Z,2.33
2019-01-26T13:40:55.647Z,4.00
2019-01-26T13:43:25.686Z,4.78
2019-01-26T13:45:55.669Z,2.42
2019-01-26T13:48:25.768Z,4.30
2019-01-26T13:50:56.049Z,2.83
2019-01-26T13:53:26.110Z,2.67
2019-01-26T13:55:56.443Z,5.17
2019-01-26T13:58:26.445Z,4.17
2019-01-26T14:00:56.857Z,3.55
2019-01-26T14:03:27.020Z,6.72
2019-01-26T14:05:57.212Z,4.67
2019-01-26T14:08:27.339Z,3.42
2019-01-26T14:10:57.396Z,4.55
2019-01-26T14:13:27.327Z,2.50
2019-01-26T14:15:57.346Z,2.80
2019-01-26T14:18:27.450Z,3.10
2019-01-26T14:20:58.276Z,3.12
2019-01-26T14:23:28.210Z,4.87
2019-01-26T14:25:58.213Z,4.08
2019-01-26T14:28:29.048Z,2.98
2019-01-26T14:31:01.313Z,4.87
2019-01-26T14:33:31.409Z,3.75
2019-01-26T14:36:01.246Z,4.30
2019-01-26T14:38:31.487Z,5.78
2019-01-26T14:41:01.931Z,5.03
2019-01-26T14:43:35.332Z,5.97
2019-01-26T14:46:05.380Z,6.37
2019-01-26T14:48:36.416Z,6.60
2019-01-26T14:51:06.575Z,7.58
2019-01-26T14:53:36.570Z,4.90
2019-01-26T14:56:08.948Z,6.28
2019-01-26T14:58:39.166Z,6.62
2019-01-26T15:01:09.270Z,6.08
2019-01-26T15:03:39.175Z,7.30
2019-01-26T15:06:11.613Z,8.20
2019-01-26T15:08:41.585Z,6.22
2019-01-26T15:11:11.652Z,7.33
2019-01-26T15:13:41.874Z,8.13
2019-01-26T15:16:11.939Z,7.05
2019-01-26T15:18:41.935Z,6.42
2019-01-26T15:21:11.886Z,7.87
2019-01-26T15:23:41.869Z,7.28
2019-01-26T15:26:13.390Z,8.73
2019-01-26T15:28:43.536Z,7.15
2019-01-26T15:31:13.909Z,7.20
2019-01-26T15:33:45.395Z,7.67
2019-01-26T15:36:15.344Z,6.58
2019-01-26T15:38:47.681Z,8.18
2019-01-26T15:41:17.657Z,9.00
2019-01-26T15:43:47.649Z,9.15
2019-01-26T15:46:18.489Z,7.83
2019-01-26T15:48:48.654Z,9.00
2019-01-26T15:51:18.659Z,7.33
2019-01-26T15:53:48.684Z,8.28
2019-01-26T15:56:18.817Z,8.00
2019-01-26T15:58:48.798Z,8.03
2019-01-26T16:01:18.913Z,9.20
2019-01-26T16:03:48.914Z,9.70
2019-01-26T16:06:18.937Z,11.73
2019-01-26T16:08:48.978Z,12.10
2019-01-26T16:11:19.190Z,11.73
2019-01-26T16:13:49.245Z,10.55
2019-01-26T16:16:19.120Z,11.97
2019-01-26T16:18:49.157Z,14.07
2019-01-26T16:21:19.136Z,12.65
2019-01-26T16:23:49.198Z,11.35
2019-01-26T16:26:19.174Z,13.75
2019-01-26T16:28:49.185Z,15.48
2019-01-26T16:31:19.266Z,15.75
2019-01-26T16:33:50.341Z,15.08
2019-01-26T16:36:20.382Z,18.12
2019-01-26T16:38:50.480Z,16.00
2019-01-26T16:41:20.409Z,17.62
2019-01-26T16:43:50.388Z,15.88
2019-01-26T16:46:20.274Z,17.50
2019-01-26T16:48:50.215Z,20.20
2019-01-26T16:51:20.150Z,20.02
2019-01-26T16:53:50.024Z,17.37
2019-01-26T16:56:20.370Z,16.93
2019-01-26T16:58:50.392Z,17.82
2019-01-26T17:01:20.319Z,20.25
2019-01-26T17:03:50.283Z,22.10
2019-01-26T17:06:20.231Z,17.90
2019-01-26T17:08:50.187Z,17.55
2019-01-26T17:11:20.169Z,24.18
2019-01-26T17:13:50.994Z,22.05
2019-01-26T17:16:22.467Z,20.43
2019-01-26T17:18:52.835Z,19.52
2019-01-26T17:21:23.647Z,21.37
2019-01-26T17:23:53.587Z,23.38
2019-01-26T17:26:23.583Z,22.15
2019-01-26T17:28:53.401Z,20.48
2019-01-26T17:31:23.517Z,22.77
2019-01-26T17:33:53.432Z,25.70
2019-01-26T17:36:23.416Z,22.55
2019-01-26T17:38:54.695Z,21.42
2019-01-26T17:41:25.311Z,24.00
2019-01-26T17:43:55.284Z,25.45
2019-01-26T17:46:25.316Z,25.20
2019-01-26T17:48:55.420Z,23.85
2019-01-26T17:51:25.379Z,23.95
2019-01-26T17:53:56.995Z,26.33
2019-01-26T17:56:27.028Z,28.90
2019-01-26T17:58:59.853Z,31.40
2019-01-26T18:01:30.576Z,26.42
2019-01-26T18:04:01.444Z,27.77
2019-01-26T18:06:33.148Z,30.27
2019-01-26T18:09:04.130Z,28.02
2019-01-26T18:11:35.214Z,28.00
2019-01-26T18:14:08.192Z,26.77
2019-01-26T18:16:38.211Z,29.12
2019-01-26T18:19:08.330Z,30.72
2019-01-26T18:21:38.446Z,27.98
2019-01-26T18:24:08.463Z,24.95
2019-01-26T18:26:38.446Z,30.65
2019-01-26T18:29:08.487Z,27.25
2019-01-26T18:31:38.409Z,28.98
2019-01-26T18:34:08.541Z,24.70
2019-01-26T18:36:38.610Z,27.77
2019-01-26T18:39:09.531Z,28.27
2019-01-26T18:41:39.985Z,27.67
2019-01-26T18:44:10.043Z,25.75
2019-01-26T18:46:40.341Z,23.52
2019-01-26T18:49:14.616Z,26.97
2019-01-26T18:51:50.890Z,25.92
2019-01-26T18:54:21.162Z,24.77
2019-01-26T18:56:51.051Z,30.55
2019-01-26T18:59:21.274Z,24.55
2019-01-26T19:01:51.277Z,24.55
2019-01-26T19:04:26.503Z,27.70
2019-01-26T19:06:59.466Z,27.82
2019-01-26T19:09:31.473Z,24.50
2019-01-26T19:12:05.329Z,27.77
2019-01-26T19:14:36.819Z,30.60
2019-01-26T19:17:06.895Z,25.02
2019-01-26T19:19:42.381Z,25.70
2019-01-26T19:22:15.459Z,23.38
2019-01-26T19:24:45.477Z,21.65
2019-01-26T19:27:16.414Z,26.60
2019-01-26T19:29:48.357Z,23.87
2019-01-26T19:32:18.535Z,23.38
2019-01-26T19:34:53.782Z,24.52
2019-01-26T19:37:31.559Z,25.00
2019-01-26T19:40:05.625Z,26.45
2019-01-26T19:42:37.247Z,24.75
2019-01-26T19:45:15.253Z,24.12
2019-01-26T19:47:48.216Z,20.72
2019-01-26T19:50:23.226Z,17.85
2019-01-26T19:52:55.811Z,20.17
2019-01-26T19:55:30.665Z,16.70
2019-01-26T19:58:00.805Z,15.10
2019-01-26T20:00:30.759Z,16.42
2019-01-26T20:03:02.483Z,13.90
2019-01-26T20:05:40.361Z,17.60
2019-01-26T20:08:10.352Z,14.85
2019-01-26T20:10:43.416Z,15.95
2019-01-26T20:13:15.038Z,16.75
2019-01-26T20:15:45.071Z,15.65
2019-01-26T20:18:15.045Z,13.58
2019-01-26T20:20:45.046Z,13.58
2019-01-26T20:23:20.512Z,14.53
2019-01-26T20:25:55.175Z,19.32
2019-01-26T20:28:26.737Z,16.65
2019-01-26T20:30:56.790Z,12.63
2019-01-26T20:33:26.709Z,13.10
2019-01-26T20:35:59.589Z,12.18
2019-01-26T20:38:36.990Z,11.43
2019-01-26T20:41:12.024Z,11.57
2019-01-26T20:43:42.587Z,11.15
2019-01-26T20:46:19.767Z,9.58
2019-01-26T20:48:54.450Z,12.78
2019-01-26T20:51:26.827Z,10.68
2019-01-26T20:54:11.990Z,10.00
2019-01-26T20:56:53.962Z,10.05
2019-01-26T20:59:24.174Z,13.43
2019-01-26T21:01:54.139Z,8.88
2019-01-26T21:04:27.073Z,10.88
2019-01-26T21:06:58.056Z,11.48
2019-01-26T21:09:32.067Z,13.60
2019-01-26T21:12:08.900Z,11.60
2019-01-26T21:14:34.673Z,9.13
2019-01-26T21:17:04.711Z,11.25
2019-01-26T21:19:44.535Z,10.10
2019-01-26T21:22:21.308Z,9.33
2019-01-26T21:24:51.278Z,10.32
2019-01-26T21:27:22.625Z,7.87
2019-01-26T21:29:52.936Z,9.58
2019-01-26T21:32:22.928Z,8.70
2019-01-26T21:34:52.946Z,10.85
2019-01-26T21:37:23.031Z,8.45
2019-01-26T21:39:53.033Z,10.08
2019-01-26T21:42:23.006Z,9.95
2019-01-26T21:44:53.016Z,9.20
2019-01-26T21:47:23.182Z,9.93
2019-01-26T21:49:53.221Z,7.58
2019-01-26T21:52:23.650Z,9.23
2019-01-26T21:54:54.976Z,6.10
2019-01-26T21:57:25.045Z,7.92
2019-01-26T21:59:56.766Z,5.50
2019-01-26T22:02:26.980Z,5.37
2019-01-26T22:04:58.420Z,7.47
2019-01-26T22:07:28.441Z,4.20
2019-01-26T22:09:58.449Z,5.87
2019-01-26T22:12:28.405Z,4.67
2019-01-26T22:14:58.381Z,4.65
2019-01-26T22:17:28.319Z,4.22
2019-01-26T22:19:58.449Z,4.37
2019-01-26T22:22:28.506Z,3.02
2019-01-26T22:25:02.117Z,3.05
2019-01-26T22:27:32.013Z,3.42
2019-01-26T22:30:03.892Z,4.58
2019-01-26T22:32:33.935Z,2.17
2019-01-26T22:35:03.903Z,3.08
2019-01-26T22:37:33.980Z,2.50
2019-01-26T22:40:04.033Z,3.08
2019-01-26T22:42:34.421Z,2.62
2019-01-26T22:45:04.405Z,3.30
2019-01-26T22:47:34.454Z,5.90
2019-01-26T22:50:05.183Z,2.25
2019-01-26T22:52:35.199Z,3.30
2019-01-26T22:55:07.529Z,2.55
2019-01-26T22:57:37.475Z,3.62
2019-01-26T23:00:38.620Z,3.02
2019-01-26T23:03:10.295Z,5.62
2019-01-26T23:06:02.075Z,2.77
2019-01-26T23:08:32.115Z,3.15
2019-01-26T23:11:32.727Z,2.62
2019-01-26T23:14:46.289Z,3.47
2019-01-26T23:17:44.237Z,2.95
2019-01-26T23:21:04.233Z,3.98
2019-01-26T23:23:59.467Z,2.77
2019-01-26T23:26:42.711Z,2.10
2019-01-26T23:29:49.659Z,2.98
2019-01-26T23:32:20.777Z,2.58
2019-01-26T23:34:50.666Z,2.62
2019-01-26T23:37:20.614Z,3.83
2019-01-26T23:39:50.517Z,2.33
2019-01-26T23:42:20.333Z,2.22
2019-01-26T23:44:51.183Z,2.70
2019-01-26T23:47:21.257Z,2.35
2019-01-26T23:49:51.205Z,2.12
2019-01-26T23:52:21.149Z,2.95
2019-01-26T23:54:51.098Z,3.83
2019-01-26T23:57:20.936Z,2.95
2019-01-26T23:59:50.919Z,3.87
